Time;durP1;ratioP1;P1;durP2;ratioP2;P2;SDS_P1;SDS_P2;PMS_P1;PMS_P2;Temp;Humidity;BMP_temperature;BMP_pressure;BME280_temperature;BME280_humidity;BME280_pressure;Samples;Min_cycle;Max_cycle;Signal;HPM_P1;HPM_P2
2022/12/06 00:01:12;;;;;;;26.57;13.13;;;;;;;;;;4970291;28;20061;-79
2022/12/06 00:03:38;;;;;;;26.97;13.47;;;;;;;;;;4970423;28;20031;-77
2022/12/06 00:06:09;;;;;;;30.80;14.43;;;;;;;;;;4971468;28;20041;-77
2022/12/06 00:08:35;;;;;;;28.13;12.87;;;;;;;;;;4970303;28;20385;-77
2022/12/06 00:11:07;;;;;;;29.50;12.70;;;;;;;;;;4970543;28;20448;-77
2022/12/06 00:13:33;;;;;;;29.15;13.10;;;;;;;;;;4972329;28;20027;-77
2022/12/06 00:16:03;;;;;;;28.03;14.03;;;;;;;;;;4971483;28;20030;-78
2022/12/06 00:18:31;;;;;;;31.27;14.77;;;;;;;;;;4972980;28;20054;-77
2022/12/06 00:21:27;;;;;;;32.30;14.60;;;;;;;;;;4972767;28;20070;-77
2022/12/06 00:24:05;;;;;;;29.93;13.97;;;;;;;;;;4969763;28;20038;-77
2022/12/06 00:26:31;;;;;;;35.17;15.93;;;;;;;;;;4977847;28;20026;-77
2022/12/06 00:28:58;;;;;;;36.07;15.63;;;;;;;;;;4991153;28;20037;-78
2022/12/06 00:31:26;;;;;;;33.60;15.97;;;;;;;;;;5005610;28;20022;-78
2022/12/06 00:33:52;;;;;;;32.20;15.57;;;;;;;;;;4989547;28;20026;-78
2022/12/06 00:36:20;;;;;;;31.23;15.03;;;;;;;;;;4990982;28;20060;-78
2022/12/06 00:38:46;;;;;;;33.17;15.30;;;;;;;;;;4990630;28;20034;-77
2022/12/06 00:41:21;;;;;;;32.43;15.30;;;;;;;;;;4991278;28;20030;-79
2022/12/06 00:43:47;;;;;;;34.70;15.67;;;;;;;;;;4991345;28;20109;-80
2022/12/06 00:46:22;;;;;;;35.43;14.70;;;;;;;;;;5005936;28;20467;-79
2022/12/06 00:48:48;;;;;;;32.27;14.13;;;;;;;;;;4990941;28;20033;-80
2022/12/06 00:51:15;;;;;;;34.07;14.40;;;;;;;;;;4990165;28;20026;-79
2022/12/06 00:53:41;;;;;;;32.20;14.60;;;;;;;;;;4988706;28;20023;-80
2022/12/06 00:56:07;;;;;;;33.43;15.47;;;;;;;;;;4989111;28;20065;-80
2022/12/06 00:58:33;;;;;;;31.57;15.50;;;;;;;;;;4990201;28;20054;-78
2022/12/06 01:01:18;;;;;;;36.03;14.83;;;;;;;;;;5005412;28;20038;-79
2022/12/06 01:03:44;;;;;;;30.43;14.70;;;;;;;;;;4989197;28;20100;-78
2022/12/06 01:06:13;;;;;;;32.43;14.03;;;;;;;;;;4992076;28;20106;-80
2022/12/06 01:08:39;;;;;;;33.63;15.70;;;;;;;;;;4995530;28;20026;-80
2022/12/06 01:11:06;;;;;;;31.23;14.97;;;;;;;;;;4999951;28;20132;-80
2022/12/06 01:13:32;;;;;;;32.10;14.43;;;;;;;;;;5010287;28;20065;-80
2022/12/06 01:16:09;;;;;;;35.67;17.27;;;;;;;;;;4993565;28;20057;-79
2022/12/06 01:18:36;;;;;;;33.40;15.73;;;;;;;;;;4994953;28;20104;-80
2022/12/06 01:21:15;;;;;;;31.43;14.83;;;;;;;;;;4992963;28;20037;-80
2022/12/06 01:23:42;;;;;;;34.40;15.53;;;;;;;;;;4992916;28;20035;-80
2022/12/06 01:26:16;;;;;;;33.67;14.83;;;;;;;;;;4989426;28;20472;-79
2022/12/06 01:28:41;;;;;;;26.60;13.67;;;;;;;;;;4974681;28;20062;-79
2022/12/06 01:31:07;;;;;;;26.77;14.30;;;;;;;;;;4974869;28;20054;-79
2022/12/06 01:33:33;;;;;;;31.13;13.57;;;;;;;;;;4974702;28;20030;-79
2022/12/06 01:35:58;;;;;;;28.97;13.83;;;;;;;;;;4973212;28;20128;-79
2022/12/06 01:38:24;;;;;;;26.83;12.60;;;;;;;;;;4972972;28;20042;-79
2022/12/06 01:40:49;;;;;;;26.97;14.00;;;;;;;;;;4973207;28;20027;-79
2022/12/06 01:43:37;;;;;;;27.27;13.10;;;;;;;;;;4974326;28;20023;-79
2022/12/06 01:46:08;;;;;;;25.17;13.10;;;;;;;;;;4972928;28;20059;-79
2022/12/06 01:48:34;;;;;;;28.63;12.50;;;;;;;;;;4972434;28;20129;-79
2022/12/06 01:51:01;;;;;;;24.83;13.00;;;;;;;;;;4972860;28;20511;-79
2022/12/06 01:53:26;;;;;;;27.00;12.03;;;;;;;;;;4974247;28;20030;-79
2022/12/06 01:55:53;;;;;;;29.23;12.37;;;;;;;;;;4973534;28;20031;-79
2022/12/06 01:58:23;;;;;;;26.23;12.73;;;;;;;;;;4974080;28;20061;-79
2022/12/06 02:00:49;;;;;;;27.37;13.93;;;;;;;;;;4974015;28;20069;-79
2022/12/06 02:03:21;;;;;;;28.20;12.27;;;;;;;;;;4974923;28;20055;-79
2022/12/06 02:05:48;;;;;;;25.92;12.63;;;;;;;;;;4973564;28;20026;-79
2022/12/06 02:08:15;;;;;;;26.20;11.77;;;;;;;;;;4973092;28;20043;-79
2022/12/06 02:10:40;;;;;;;25.57;11.80;;;;;;;;;;4974275;28;20070;-79
2022/12/06 02:13:06;;;;;;;27.43;12.60;;;;;;;;;;4973839;28;20023;-78
2022/12/06 02:16:12;;;;;;;24.20;11.30;;;;;;;;;;4973457;28;20082;-79
2022/12/06 02:18:53;;;;;;;23.13;11.33;;;;;;;;;;4970783;28;20089;-79
2022/12/06 02:21:49;;;;;;;22.87;11.97;;;;;;;;;;4973725;28;20031;-79
2022/12/06 02:24:41;;;;;;;24.47;10.37;;;;;;;;;;4971940;28;20027;-79
2022/12/06 02:27:46;;;;;;;26.80;11.30;;;;;;;;;;4999982;28;20026;-79
2022/12/06 02:30:45;;;;;;;26.33;12.23;;;;;;;;;;4984198;28;20031;-79
2022/12/06 02:33:30;;;;;;;25.60;12.43;;;;;;;;;;4992875;28;20025;-79
2022/12/06 02:36:07;;;;;;;20.17;10.43;;;;;;;;;;4991671;28;20033;-78
2022/12/06 02:39:00;;;;;;;24.27;10.57;;;;;;;;;;4991361;28;20026;-78
2022/12/06 02:41:32;;;;;;;24.37;10.57;;;;;;;;;;5007854;28;20109;-77
2022/12/06 02:44:07;;;;;;;28.88;12.90;;;;;;;;;;4993211;28;20034;-78
2022/12/06 02:46:36;;;;;;;19.67;11.13;;;;;;;;;;4993099;28;20030;-78
2022/12/06 02:49:05;;;;;;;20.13;9.30;;;;;;;;;;5007523;28;20109;-79
2022/12/06 02:51:33;;;;;;;24.40;10.17;;;;;;;;;;4992542;28;20033;-79
2022/12/06 02:54:01;;;;;;;20.67;9.73;;;;;;;;;;4993588;28;20026;-79
2022/12/06 02:56:33;;;;;;;19.87;8.87;;;;;;;;;;4993324;28;20030;-78
2022/12/06 02:58:58;;;;;;;16.20;8.55;;;;;;;;;;5008633;28;20026;-79
2022/12/06 03:01:28;;;;;;;19.83;9.13;;;;;;;;;;4992514;28;20475;-77
2022/12/06 03:04:16;;;;;;;16.93;9.27;;;;;;;;;;4991058;28;20018;-78
2022/12/06 03:06:56;;;;;;;16.47;8.63;;;;;;;;;;5007402;28;20479;-77
2022/12/06 03:09:37;;;;;;;15.73;7.50;;;;;;;;;;4997756;28;20026;-79
2022/12/06 03:12:17;;;;;;;19.70;8.63;;;;;;;;;;4993002;28;20026;-80
2022/12/06 03:14:45;;;;;;;16.73;7.63;;;;;;;;;;4993343;28;20097;-80
2022/12/06 03:17:34;;;;;;;17.57;8.57;;;;;;;;;;4993457;28;20022;-80
2022/12/06 03:20:09;;;;;;;19.33;9.43;;;;;;;;;;4993224;28;20022;-80
2022/12/06 03:22:37;;;;;;;13.17;7.33;;;;;;;;;;4991313;28;20022;-79
2022/12/06 03:25:05;;;;;;;11.00;6.50;;;;;;;;;;4992476;28;20026;-80
2022/12/06 03:27:31;;;;;;;15.03;6.93;;;;;;;;;;4992138;28;20020;-80
2022/12/06 03:29:59;;;;;;;13.77;6.93;;;;;;;;;;5006325;28;20026;-80
2022/12/06 03:32:29;;;;;;;15.27;6.33;;;;;;;;;;4990762;28;20026;-79
2022/12/06 03:34:58;;;;;;;11.97;6.50;;;;;;;;;;4992233;28;20023;-80
2022/12/06 03:37:26;;;;;;;12.40;6.73;;;;;;;;;;4992015;28;20023;-79
2022/12/06 03:40:01;;;;;;;13.97;6.40;;;;;;;;;;4990875;28;20427;-79
2022/12/06 03:42:29;;;;;;;13.77;7.07;;;;;;;;;;4990920;28;20030;-79
2022/12/06 03:44:55;;;;;;;11.10;6.77;;;;;;;;;;4990858;28;20391;-79
2022/12/06 03:47:24;;;;;;;15.13;7.63;;;;;;;;;;5007210;28;20026;-79
2022/12/06 03:50:08;;;;;;;11.30;6.37;;;;;;;;;;4990718;28;20022;-79
2022/12/06 03:52:34;;;;;;;13.77;6.20;;;;;;;;;;4994554;28;20030;-80
2022/12/06 03:55:00;;;;;;;11.60;6.17;;;;;;;;;;4992353;28;20022;-80
2022/12/06 03:57:25;;;;;;;12.93;6.90;;;;;;;;;;4992226;28;20109;-79
2022/12/06 03:59:51;;;;;;;13.53;7.30;;;;;;;;;;4992436;28;20035;-79
2022/12/06 04:02:16;;;;;;;15.00;7.33;;;;;;;;;;4992690;28;20026;-79
2022/12/06 04:04:42;;;;;;;13.73;6.87;;;;;;;;;;4993776;28;20547;-79
2022/12/06 04:07:09;;;;;;;15.03;7.10;;;;;;;;;;4994053;28;20026;-79
2022/12/06 04:09:55;;;;;;;16.97;7.50;;;;;;;;;;4994082;28;20034;-78
2022/12/06 04:15:06;;;;;;;14.70;7.63;;;;;;;;;;4992686;28;20041;-77
2022/12/06 04:20:16;;;;;;;13.63;6.97;;;;;;;;;;4990704;28;20033;-77
2022/12/06 04:25:25;;;;;;;11.93;6.43;;;;;;;;;;4991043;28;20104;-78
2022/12/06 04:39:00;;;;;;;10.77;5.80;;;;;;;;;;4949421;29;20086;-77
2022/12/06 04:44:10;;;;;;;8.27;4.90;;;;;;;;;;4973643;28;20093;-79
2022/12/06 04:46:35;;;;;;;9.63;5.23;;;;;;;;;;4972243;28;20026;-78
2022/12/06 04:49:01;;;;;;;9.53;5.17;;;;;;;;;;4971791;28;20129;-78
2022/12/06 04:51:27;;;;;;;8.80;5.17;;;;;;;;;;4972835;28;20039;-79
2022/12/06 04:53:52;;;;;;;12.60;6.13;;;;;;;;;;4974496;28;20431;-78
2022/12/06 04:56:18;;;;;;;10.07;4.93;;;;;;;;;;4976636;28;20043;-80
2022/12/06 04:58:44;;;;;;;9.83;5.07;;;;;;;;;;4975573;28;20033;-78
2022/12/06 05:01:09;;;;;;;9.30;5.17;;;;;;;;;;4974635;28;20039;-78
2022/12/06 05:03:36;;;;;;;10.40;4.83;;;;;;;;;;4971875;28;20070;-79
2022/12/06 05:06:01;;;;;;;10.30;6.00;;;;;;;;;;4974045;28;20081;-78
2022/12/06 05:08:27;;;;;;;9.57;5.00;;;;;;;;;;4972619;28;20126;-79
2022/12/06 05:10:53;;;;;;;10.30;4.90;;;;;;;;;;4970627;28;20035;-79
2022/12/06 05:13:19;;;;;;;9.03;4.77;;;;;;;;;;4971929;28;20502;-79
2022/12/06 05:15:52;;;;;;;9.07;4.80;;;;;;;;;;4969834;28;20391;-78
2022/12/06 05:18:18;;;;;;;11.13;5.47;;;;;;;;;;4969685;28;20037;-78
2022/12/06 05:20:43;;;;;;;7.30;4.37;;;;;;;;;;4969663;28;20038;-78
2022/12/06 05:23:09;;;;;;;9.30;5.10;;;;;;;;;;4969549;28;20035;-78
2022/12/06 05:25:34;;;;;;;7.77;4.47;;;;;;;;;;4969741;28;20048;-79
2022/12/06 05:28:00;;;;;;;8.90;5.37;;;;;;;;;;4988735;28;20388;-79
2022/12/06 05:30:25;;;;;;;9.50;5.07;;;;;;;;;;4991302;28;20026;-78
2022/12/06 05:32:51;;;;;;;10.20;5.70;;;;;;;;;;4991974;28;20482;-78
2022/12/06 05:35:16;;;;;;;11.87;5.37;;;;;;;;;;4999561;28;20033;-78
2022/12/06 05:37:42;;;;;;;10.97;5.80;;;;;;;;;;4999562;28;20076;-78
2022/12/06 05:40:08;;;;;;;10.97;5.33;;;;;;;;;;4989657;28;20038;-78
2022/12/06 05:42:34;;;;;;;11.13;6.10;;;;;;;;;;4990058;28;20041;-78
2022/12/06 05:44:59;;;;;;;8.90;5.20;;;;;;;;;;4989014;28;20340;-78
2022/12/06 05:47:25;;;;;;;14.10;6.70;;;;;;;;;;4989706;28;20125;-79
2022/12/06 05:49:50;;;;;;;12.00;6.20;;;;;;;;;;5005250;28;20434;-78
2022/12/06 05:52:16;;;;;;;13.00;6.43;;;;;;;;;;4990944;28;20054;-78
2022/12/06 05:54:41;;;;;;;11.77;6.67;;;;;;;;;;4994312;28;20026;-78
2022/12/06 05:57:07;;;;;;;12.40;6.73;;;;;;;;;;4995191;28;20038;-78
2022/12/06 05:59:32;;;;;;;10.17;6.17;;;;;;;;;;5009140;28;20034;-78
2022/12/06 06:01:58;;;;;;;11.53;6.00;;;;;;;;;;4992668;28;20038;-78
2022/12/06 06:04:23;;;;;;;12.77;6.57;;;;;;;;;;4987096;28;20045;-78
2022/12/06 06:06:49;;;;;;;15.67;6.80;;;;;;;;;;5006344;28;20046;-78
2022/12/06 06:09:14;;;;;;;12.97;6.73;;;;;;;;;;4979229;28;20031;-78
2022/12/06 06:11:40;;;;;;;14.40;7.20;;;;;;;;;;4972225;28;20471;-78
2022/12/06 06:14:05;;;;;;;10.47;6.07;;;;;;;;;;4988112;28;20033;-78
2022/12/06 06:16:33;;;;;;;12.30;5.87;;;;;;;;;;4972896;28;20089;-80
2022/12/06 06:19:00;;;;;;;12.80;6.40;;;;;;;;;;4974633;28;20041;-77
2022/12/06 06:21:26;;;;;;;10.53;5.33;;;;;;;;;;4990748;28;20022;-78
2022/12/06 06:23:52;;;;;;;9.83;5.20;;;;;;;;;;4993502;28;20088;-78
2022/12/06 06:26:17;;;;;;;10.13;5.20;;;;;;;;;;4991175;28;20113;-79
2022/12/06 06:28:43;;;;;;;11.93;5.90;;;;;;;;;;4975074;28;20030;-81
2022/12/06 06:31:08;;;;;;;9.70;5.03;;;;;;;;;;4989514;28;20034;-79
2022/12/06 06:33:35;;;;;;;11.33;5.10;;;;;;;;;;4992122;28;20066;-78
2022/12/06 06:36:00;;;;;;;7.10;4.87;;;;;;;;;;4989374;28;20038;-79
2022/12/06 06:38:28;;;;;;;9.23;4.90;;;;;;;;;;4987171;28;20026;-78
2022/12/06 06:40:54;;;;;;;9.27;5.00;;;;;;;;;;4990973;28;20471;-78
2022/12/06 06:43:19;;;;;;;10.63;5.43;;;;;;;;;;4990706;28;20038;-79
2022/12/06 06:45:56;;;;;;;15.77;5.97;;;;;;;;;;4992247;28;20404;-79
2022/12/06 06:48:23;;;;;;;14.03;7.17;;;;;;;;;;4990452;28;20041;-77
2022/12/06 06:50:49;;;;;;;16.83;6.33;;;;;;;;;;4990028;28;20085;-80
2022/12/06 06:53:15;;;;;;;8.83;5.10;;;;;;;;;;4991066;28;20113;-79
2022/12/06 06:55:45;;;;;;;8.63;5.10;;;;;;;;;;4992458;28;20038;-79
2022/12/06 06:58:13;;;;;;;11.60;5.63;;;;;;;;;;4991805;28;20030;-79
2022/12/06 07:00:40;;;;;;;12.00;5.30;;;;;;;;;;4991510;28;20126;-82
2022/12/06 07:03:06;;;;;;;13.33;6.40;;;;;;;;;;5007971;28;20042;-81
2022/12/06 07:05:32;;;;;;;15.90;8.13;;;;;;;;;;4986683;28;20026;-81
2022/12/06 07:07:57;;;;;;;11.50;4.53;;;;;;;;;;4994385;28;20161;-80
2022/12/06 07:10:26;;;;;;;10.77;4.67;;;;;;;;;;4987972;28;20066;-74
2022/12/06 07:12:53;;;;;;;8.17;4.70;;;;;;;;;;4974642;28;20100;-76
2022/12/06 07:15:20;;;;;;;7.60;4.73;;;;;;;;;;4981945;28;20105;-77
2022/12/06 07:17:46;;;;;;;9.77;4.97;;;;;;;;;;4988036;28;20124;-77
2022/12/06 07:20:12;;;;;;;7.17;4.10;;;;;;;;;;4993550;28;20023;-80
2022/12/06 07:22:38;;;;;;;12.33;5.60;;;;;;;;;;4990157;28;20059;-80
2022/12/06 07:25:04;;;;;;;8.17;5.03;;;;;;;;;;4991320;28;20027;-80
2022/12/06 07:27:35;;;;;;;10.80;4.50;;;;;;;;;;4990806;28;20627;-81
2022/12/06 07:30:02;;;;;;;9.07;5.28;;;;;;;;;;4989531;28;20133;-79
2022/12/06 07:32:28;;;;;;;16.63;8.57;;;;;;;;;;4988696;28;20514;-80
2022/12/06 07:34:53;;;;;;;11.03;6.63;;;;;;;;;;4986282;28;20116;-80
2022/12/06 07:37:19;;;;;;;9.97;6.00;;;;;;;;;;4981208;28;20296;-78
2022/12/06 07:39:49;;;;;;;11.07;5.70;;;;;;;;;;4979423;28;20034;-77
2022/12/06 07:45:00;;;;;;;11.33;5.53;;;;;;;;;;4985396;28;20045;-78
2022/12/06 07:47:26;;;;;;;16.23;6.37;;;;;;;;;;4987715;28;20035;-79
2022/12/06 07:49:52;;;;;;;8.33;5.57;;;;;;;;;;4983990;28;20099;-78
2022/12/06 07:52:19;;;;;;;12.90;6.57;;;;;;;;;;4980499;28;20475;-78
2022/12/06 07:54:45;;;;;;;9.50;6.30;;;;;;;;;;4981790;28;20284;-79
2022/12/06 07:57:16;;;;;;;15.13;6.93;;;;;;;;;;4987864;28;20426;-81
2022/12/06 07:59:41;;;;;;;12.57;7.23;;;;;;;;;;4982387;28;20034;-78
2022/12/06 08:02:20;;;;;;;13.70;6.83;;;;;;;;;;4980033;28;20041;-78
2022/12/06 08:04:46;;;;;;;49.90;16.43;;;;;;;;;;4990322;28;20453;-73
2022/12/06 08:07:12;;;;;;;15.83;7.20;;;;;;;;;;4986827;28;20104;-78
2022/12/06 08:09:37;;;;;;;10.87;7.17;;;;;;;;;;4981770;28;20399;-77
2022/12/06 08:12:03;;;;;;;15.23;6.43;;;;;;;;;;4976231;28;20031;-78
2022/12/06 08:14:30;;;;;;;13.03;6.73;;;;;;;;;;5006079;28;20018;-79
2022/12/06 08:16:56;;;;;;;13.33;6.53;;;;;;;;;;4990138;28;20037;-79
2022/12/06 08:19:21;;;;;;;11.70;6.07;;;;;;;;;;4988777;28;20061;-78
2022/12/06 08:21:48;;;;;;;10.77;6.73;;;;;;;;;;4985287;28;20120;-79
2022/12/06 08:24:14;;;;;;;12.30;6.60;;;;;;;;;;4966588;28;20104;-77
2022/12/06 08:26:40;;;;;;;13.60;7.07;;;;;;;;;;4997763;28;20022;-79
2022/12/06 08:29:07;;;;;;;10.10;5.93;;;;;;;;;;4978588;28;20026;-80
2022/12/06 08:31:33;;;;;;;9.23;5.73;;;;;;;;;;4974484;28;20074;-78
2022/12/06 08:34:00;;;;;;;17.97;10.17;;;;;;;;;;4979945;28;20096;-79
2022/12/06 08:36:27;;;;;;;9.37;5.77;;;;;;;;;;4992348;28;20037;-81
2022/12/06 08:38:53;;;;;;;16.37;7.07;;;;;;;;;;4988252;28;20030;-80
2022/12/06 08:44:05;;;;;;;16.47;6.50;;;;;;;;;;4978043;28;20073;-83
2022/12/06 08:46:33;;;;;;;14.87;6.90;;;;;;;;;;4986520;28;20018;-78
2022/12/06 08:49:02;;;;;;;12.80;5.93;;;;;;;;;;4986483;28;20044;-82
2022/12/06 08:51:31;;;;;;;9.70;6.50;;;;;;;;;;4979881;28;20284;-76
2022/12/06 08:53:57;;;;;;;13.87;6.70;;;;;;;;;;4984817;28;20502;-79
2022/12/06 08:56:26;;;;;;;13.63;7.23;;;;;;;;;;4979633;28;20064;-78
2022/12/06 08:58:53;;;;;;;10.60;6.43;;;;;;;;;;4982785;28;20034;-76
2022/12/06 09:01:25;;;;;;;26.83;9.80;;;;;;;;;;4988388;28;20092;-77
2022/12/06 09:03:58;;;;;;;14.43;6.70;;;;;;;;;;4981273;28;20038;-80
2022/12/06 09:06:24;;;;;;;14.23;7.73;;;;;;;;;;4989914;28;20030;-81
2022/12/06 09:08:51;;;;;;;10.00;6.33;;;;;;;;;;4982735;28;20398;-79
2022/12/06 09:11:19;;;;;;;21.80;9.60;;;;;;;;;;4985603;28;20042;-78
2022/12/06 09:13:45;;;;;;;16.17;9.97;;;;;;;;;;4982794;28;20118;-79
2022/12/06 09:16:15;;;;;;;13.90;8.57;;;;;;;;;;4994326;28;20722;-82
2022/12/06 09:18:42;;;;;;;16.30;7.13;;;;;;;;;;4991434;28;20027;-81
2022/12/06 09:21:14;;;;;;;11.57;6.13;;;;;;;;;;4985654;28;20037;-80
2022/12/06 09:23:40;;;;;;;11.27;6.68;;;;;;;;;;4978338;28;20122;-78
2022/12/06 09:26:08;;;;;;;15.83;8.17;;;;;;;;;;4976135;28;20050;-81
2022/12/06 09:28:36;;;;;;;13.37;7.43;;;;;;;;;;4994205;28;20031;-83
2022/12/06 09:31:03;;;;;;;13.80;7.67;;;;;;;;;;4989779;28;20112;-83
2022/12/06 09:33:29;;;;;;;19.13;7.37;;;;;;;;;;4977048;28;20040;-79
2022/12/06 09:36:00;;;;;;;14.13;7.50;;;;;;;;;;4996745;28;20042;-82
2022/12/06 09:38:28;;;;;;;13.20;7.60;;;;;;;;;;5010700;28;20038;-79
2022/12/06 09:41:31;;;;;;;27.77;13.30;;;;;;;;;;4994146;28;20034;-82
2022/12/06 09:44:21;;;;;;;13.17;9.10;;;;;;;;;;4999778;28;20185;-82
2022/12/06 09:47:16;;;;;;;21.40;10.10;;;;;;;;;;4991939;28;20022;-81
2022/12/06 09:49:57;;;;;;;15.93;8.03;;;;;;;;;;4986772;28;20030;-82
2022/12/06 09:52:42;;;;;;;18.33;8.40;;;;;;;;;;4996477;28;20486;-82
2022/12/06 09:55:29;;;;;;;16.77;7.93;;;;;;;;;;4989194;28;20057;-79
2022/12/06 09:58:26;;;;;;;16.57;8.97;;;;;;;;;;4997355;28;20014;-79
2022/12/06 10:01:10;;;;;;;18.20;8.50;;;;;;;;;;5007874;28;20052;-79
2022/12/06 10:03:58;;;;;;;18.23;8.50;;;;;;;;;;4999245;28;20166;-78
2022/12/06 10:06:29;;;;;;;14.93;8.70;;;;;;;;;;5001044;28;20104;-81
2022/12/06 10:09:31;;;;;;;17.10;8.48;;;;;;;;;;5002029;28;20522;-79
2022/12/06 10:12:15;;;;;;;25.00;14.13;;;;;;;;;;4980526;28;20026;-81
2022/12/06 10:14:45;;;;;;;17.67;9.63;;;;;;;;;;4982681;28;20026;-81
2022/12/06 10:17:35;;;;;;;17.87;10.27;;;;;;;;;;4985453;28;20030;-79
2022/12/06 10:20:51;;;;;;;19.80;8.90;;;;;;;;;;5008719;28;20034;-80
2022/12/06 10:23:38;;;;;;;19.33;9.07;;;;;;;;;;4980755;28;20493;-78
2022/12/06 10:26:16;;;;;;;15.10;7.93;;;;;;;;;;4992535;28;20081;-81
2022/12/06 10:29:14;;;;;;;12.63;7.63;;;;;;;;;;5001069;28;20030;-83
2022/12/06 10:32:03;;;;;;;13.97;7.57;;;;;;;;;;4982628;28;20136;-78
2022/12/06 10:34:47;;;;;;;14.83;7.43;;;;;;;;;;4985872;28;20037;-79
2022/12/06 10:38:08;;;;;;;16.40;7.40;;;;;;;;;;4988620;28;20027;-82
2022/12/06 10:40:48;;;;;;;10.10;6.23;;;;;;;;;;4979651;28;20092;-84
2022/12/06 10:43:24;;;;;;;10.53;6.40;;;;;;;;;;4987163;28;20030;-81
2022/12/06 10:49:15;;;;;;;9.13;6.57;;;;;;;;;;4990301;28;20101;-77
2022/12/06 10:51:48;;;;;;;10.63;5.70;;;;;;;;;;5001691;28;20034;-78
2022/12/06 10:54:28;;;;;;;9.47;5.80;;;;;;;;;;4997204;28;20112;-79
2022/12/06 10:56:58;;;;;;;10.57;6.60;;;;;;;;;;5004745;28;20026;-81
2022/12/06 10:59:38;;;;;;;12.80;7.73;;;;;;;;;;4985799;28;20033;-78
2022/12/06 11:02:25;;;;;;;13.03;6.17;;;;;;;;;;4986462;28;20056;-80
2022/12/06 11:04:54;;;;;;;9.27;5.80;;;;;;;;;;4987253;28;20136;-79
2022/12/06 11:07:25;;;;;;;10.47;5.97;;;;;;;;;;5001547;28;20038;-84
2022/12/06 11:09:53;;;;;;;11.85;7.05;;;;;;;;;;5000749;28;20038;-79
2022/12/06 11:12:37;;;;;;;14.07;7.43;;;;;;;;;;4983569;28;20041;-79
2022/12/06 11:15:16;;;;;;;11.73;6.70;;;;;;;;;;4984750;28;20022;-81
2022/12/06 11:17:47;;;;;;;10.23;6.27;;;;;;;;;;5006693;28;20030;-83
2022/12/06 11:20:27;;;;;;;8.67;5.43;;;;;;;;;;4992724;28;20030;-84
2022/12/06 11:23:06;;;;;;;12.77;6.60;;;;;;;;;;4982741;28;20057;-80
2022/12/06 11:26:05;;;;;;;10.30;6.67;;;;;;;;;;4989420;28;20538;-86
2022/12/06 11:29:06;;;;;;;8.40;5.20;;;;;;;;;;4976215;28;20030;-81
2022/12/06 11:31:46;;;;;;;7.83;5.13;;;;;;;;;;4988137;28;20026;-83
2022/12/06 11:34:42;;;;;;;7.07;4.03;;;;;;;;;;4979969;28;20101;-88
2022/12/06 11:37:26;;;;;;;6.83;4.80;;;;;;;;;;4998514;28;20049;-89
2022/12/06 11:39:57;;;;;;;7.57;4.53;;;;;;;;;;5002503;28;20045;-87
2022/12/06 11:42:28;;;;;;;7.32;4.40;;;;;;;;;;4997796;28;20026;-91
2022/12/06 11:45:18;;;;;;;8.60;5.17;;;;;;;;;;4997391;28;20121;-87
2022/12/06 11:47:46;;;;;;;10.43;5.35;;;;;;;;;;4988063;28;20054;-82
2022/12/06 11:50:17;;;;;;;8.93;5.53;;;;;;;;;;4985042;28;20108;-81
2022/12/06 11:52:50;;;;;;;9.50;5.40;;;;;;;;;;4975956;28;20054;-76
2022/12/06 11:55:30;;;;;;;7.70;4.57;;;;;;;;;;4975375;28;20038;-84
2022/12/06 11:58:06;;;;;;;8.03;5.10;;;;;;;;;;4983701;28;20584;-76
2022/12/06 12:00:31;;;;;;;8.33;5.40;;;;;;;;;;4996821;28;20050;-82
2022/12/06 12:02:57;;;;;;;8.77;5.50;;;;;;;;;;4983407;28;21705;-82
2022/12/06 12:05:29;;;;;;;8.70;5.33;;;;;;;;;;4980712;28;20050;-79
2022/12/06 12:08:16;;;;;;;10.13;6.23;;;;;;;;;;4979699;28;20066;-74
2022/12/06 12:10:43;;;;;;;10.00;5.87;;;;;;;;;;5003019;28;20030;-78
2022/12/06 12:16:22;;;;;;;8.27;5.23;;;;;;;;;;4985099;28;20042;-79
2022/12/06 12:19:01;;;;;;;11.57;6.10;;;;;;;;;;4986032;28;20045;-83
2022/12/06 12:21:41;;;;;;;10.03;5.80;;;;;;;;;;4998061;28;20030;-80
2022/12/06 12:24:40;;;;;;;9.47;5.40;;;;;;;;;;4984932;28;20118;-83
2022/12/06 12:27:31;;;;;;;10.57;5.70;;;;;;;;;;4991867;28;20479;-83
2022/12/06 12:30:16;;;;;;;11.13;6.63;;;;;;;;;;4986096;28;20042;-82
2022/12/06 12:32:42;;;;;;;9.20;5.87;;;;;;;;;;4984817;28;20268;-82
2022/12/06 12:35:20;;;;;;;10.60;5.90;;;;;;;;;;4981965;28;20053;-83
2022/12/06 12:37:50;;;;;;;10.67;5.90;;;;;;;;;;4992061;28;20393;-83
2022/12/06 12:40:32;;;;;;;17.90;8.50;;;;;;;;;;4988023;28;20026;-82
2022/12/06 12:43:22;;;;;;;10.77;5.80;;;;;;;;;;4983538;28;20041;-83
2022/12/06 12:46:13;;;;;;;8.57;5.80;;;;;;;;;;4983387;28;20131;-85
2022/12/06 12:48:41;;;;;;;10.83;6.20;;;;;;;;;;4988325;28;20030;-84
2022/12/06 12:51:32;;;;;;;9.60;5.87;;;;;;;;;;4994780;28;20034;-86
2022/12/06 12:54:17;;;;;;;10.47;6.03;;;;;;;;;;4985324;28;20571;-78
2022/12/06 12:56:43;;;;;;;10.50;5.33;;;;;;;;;;4987961;28;20042;-83
2022/12/06 12:59:15;;;;;;;7.97;5.03;;;;;;;;;;4993111;28;20046;-83
2022/12/06 13:02:11;;;;;;;8.75;4.97;;;;;;;;;;4994264;28;20046;-83
2022/12/06 13:05:00;;;;;;;10.00;5.80;;;;;;;;;;5001324;28;20543;-84
2022/12/06 13:07:45;;;;;;;10.67;6.07;;;;;;;;;;5003504;28;20466;-84
2022/12/06 13:10:34;;;;;;;12.80;5.33;;;;;;;;;;4993739;28;20070;-80
2022/12/06 13:13:14;;;;;;;7.60;4.80;;;;;;;;;;4987270;28;20041;-81
2022/12/06 13:15:46;;;;;;;10.53;5.83;;;;;;;;;;4984687;28;20044;-81
2022/12/06 13:18:39;;;;;;;8.55;5.30;;;;;;;;;;4986832;28;20180;-76
2022/12/06 13:21:33;;;;;;;8.63;5.57;;;;;;;;;;4983462;28;20434;-81
2022/12/06 13:24:11;;;;;;;9.70;5.83;;;;;;;;;;4981546;28;20050;-78
2022/12/06 13:26:43;;;;;;;10.20;5.73;;;;;;;;;;5005233;28;20626;-81
2022/12/06 13:29:35;;;;;;;10.27;6.40;;;;;;;;;;5004981;28;20096;-82
2022/12/06 13:32:04;;;;;;;;;;;;;;;;;;4993203;28;20134;-81
2022/12/06 13:34:42;;;;;;;11.83;4.93;;;;;;;;;;4990164;28;20226;-81
2022/12/06 13:37:42;;;;;;;9.57;5.53;;;;;;;;;;4994156;28;20486;-79
2022/12/06 13:40:30;;;;;;;8.27;5.00;;;;;;;;;;5002489;28;20029;-82
2022/12/06 13:42:56;;;;;;;10.07;5.23;;;;;;;;;;4988078;28;20034;-79
2022/12/06 13:45:44;;;;;;;8.97;5.53;;;;;;;;;;4985518;28;20040;-80
2022/12/06 13:48:28;;;;;;;8.80;5.27;;;;;;;;;;4990871;28;20030;-81
2022/12/06 13:51:00;;;;;;;8.97;5.30;;;;;;;;;;4991336;28;20038;-79
2022/12/06 13:54:04;;;;;;;10.50;5.10;;;;;;;;;;4983145;28;20108;-80
2022/12/06 13:56:32;;;;;;;10.67;5.33;;;;;;;;;;4987115;28;20076;-80
2022/12/06 13:59:11;;;;;;;10.90;5.00;;;;;;;;;;4994436;28;20038;-78
2022/12/06 14:01:47;;;;;;;8.57;5.43;;;;;;;;;;4996139;28;20050;-80
2022/12/06 14:04:34;;;;;;;10.03;5.53;;;;;;;;;;4989012;28;20049;-76
2022/12/06 14:07:08;;;;;;;9.40;5.43;;;;;;;;;;4993345;28;20031;-80
2022/12/06 14:09:54;;;;;;;9.67;5.57;;;;;;;;;;4993090;28;20041;-83
2022/12/06 14:12:22;;;;;;;9.03;5.53;;;;;;;;;;4996254;28;20035;-79
2022/12/06 14:15:04;;;;;;;11.43;6.57;;;;;;;;;;4987325;28;20045;-79
2022/12/06 14:17:40;;;;;;;9.75;5.93;;;;;;;;;;4985767;28;20022;-78
2022/12/06 14:20:19;;;;;;;17.50;6.30;;;;;;;;;;4983305;28;20026;-76
2022/12/06 14:22:47;;;;;;;8.93;5.50;;;;;;;;;;4985149;28;20576;-76
2022/12/06 14:25:32;;;;;;;10.10;6.33;;;;;;;;;;4991385;28;20424;-76
2022/12/06 14:28:10;;;;;;;10.13;5.90;;;;;;;;;;4981816;28;20070;-76
2022/12/06 14:30:46;;;;;;;;;;;;;;;;;;;;;
2022/12/06 14:33:21;;;;;;;9.03;5.93;;;;;;;;;;4981445;28;20030;-79
2022/12/06 14:35:55;;;;;;;14.53;6.07;;;;;;;;;;4987929;28;20031;-76
2022/12/06 14:38:33;;;;;;;9.47;5.77;;;;;;;;;;4991071;28;20026;-80
2022/12/06 14:44:09;;;;;;;12.67;5.67;;;;;;;;;;4977043;28;20104;-73
2022/12/06 14:46:35;;;;;;;8.80;5.83;;;;;;;;;;4990993;28;20085;-80
2022/12/06 14:51:49;;;;;;;13.50;6.60;;;;;;;;;;4993286;28;20111;-79
2022/12/06 14:54:50;;;;;;;12.33;6.47;;;;;;;;;;4989803;28;20037;-77
2022/12/06 14:57:42;;;;;;;10.07;6.50;;;;;;;;;;4987008;28;20064;-75
2022/12/06 15:00:21;;;;;;;11.13;5.78;;;;;;;;;;4989750;28;21259;-76
2022/12/06 15:03:22;;;;;;;8.37;5.57;;;;;;;;;;4988208;28;20129;-76
2022/12/06 15:06:08;;;;;;;10.80;6.07;;;;;;;;;;4984368;28;20446;-76
2022/12/06 15:08:37;;;;;;;11.53;6.37;;;;;;;;;;4990383;28;20128;-78
2022/12/06 15:12:53;;;;;;;17.33;6.35;;;;;;;;;;4987062;28;20037;-75
2022/12/06 15:14:14;;;;;;;10.37;6.07;;;;;;;;;;4980245;28;20045;-82
2022/12/06 15:16:42;;;;;;;9.47;5.33;;;;;;;;;;4987835;28;20039;-79
2022/12/06 15:19:17;;;;;;;10.30;6.33;;;;;;;;;;4972761;28;20033;-81
2022/12/06 15:21:51;;;;;;;9.27;5.80;;;;;;;;;;5003111;28;20033;-76
2022/12/06 15:24:23;;;;;;;10.37;6.17;;;;;;;;;;4987110;28;20144;-76
2022/12/06 15:26:50;;;;;;;8.95;5.28;;;;;;;;;;4989431;28;20022;-76
2022/12/06 15:29:17;;;;;;;10.63;5.03;;;;;;;;;;4986304;28;20089;-76
2022/12/06 15:31:45;;;;;;;8.20;5.47;;;;;;;;;;4988325;28;20379;-75
2022/12/06 15:34:24;;;;;;;9.03;5.73;;;;;;;;;;4970993;28;20120;-75
2022/12/06 15:36:50;;;;;;;10.50;6.00;;;;;;;;;;4945231;28;20042;-78
2022/12/06 15:39:16;;;;;;;13.80;5.90;;;;;;;;;;4960865;28;20030;-82
2022/12/06 15:41:42;;;;;;;12.30;5.57;;;;;;;;;;4983498;28;20049;-74
2022/12/06 15:44:20;;;;;;;10.37;6.33;;;;;;;;;;5000920;28;20501;-75
2022/12/06 15:46:46;;;;;;;11.23;6.27;;;;;;;;;;4984321;28;20482;-75